createdAt,value
2017-09-09T00:00:20.164Z,0
2017-09-09T00:01:19.245Z,0
2017-09-09T00:02:19.247Z,0
2017-09-09T00:03:19.308Z,0
2017-09-09T00:04:18.932Z,0
2017-09-09T00:05:20.602Z,0
2017-09-09T00:06:18.945Z,0
2017-09-09T00:07:19.237Z,0
2017-09-09T00:08:19.234Z,0
2017-09-09T00:09:18.622Z,0
2017-09-09T00:10:20.373Z,0
2017-09-09T00:11:18.950Z,0
2017-09-09T00:12:18.621Z,0
2017-09-09T00:13:19.543Z,0
2017-09-09T00:14:19.558Z,0
2017-09-09T00:15:19.923Z,0
2017-09-09T00:16:18.931Z,0
2017-09-09T00:17:18.733Z,0
2017-09-09T00:18:19.274Z,0
2017-09-09T00:19:18.936Z,0
2017-09-09T00:20:19.759Z,0
2017-09-09T00:21:18.920Z,0
2017-09-09T00:22:18.917Z,0
2017-09-09T00:23:19.236Z,0
2017-09-09T00:24:18.920Z,0
2017-09-09T00:25:20.170Z,0
2017-09-09T00:26:19.236Z,0
2017-09-09T00:27:18.916Z,0
2017-09-09T00:28:18.922Z,0
2017-09-09T00:29:18.624Z,0
2017-09-09T00:30:20.212Z,0
2017-09-09T00:31:19.245Z,0
2017-09-09T00:32:19.226Z,0
2017-09-09T00:33:19.237Z,0
2017-09-09T00:34:18.294Z,0
2017-09-09T00:35:20.550Z,0
2017-09-09T00:36:19.255Z,0
2017-09-09T00:37:19.268Z,0
2017-09-09T00:38:19.530Z,0
2017-09-09T00:39:18.917Z,0
2017-09-09T00:40:19.661Z,0
2017-09-09T00:41:19.222Z,0
2017-09-09T00:42:19.582Z,0
2017-09-09T00:43:18.907Z,0
2017-09-09T00:44:19.210Z,0
2017-09-09T00:45:20.355Z,0
2017-09-09T00:46:18.595Z,0
2017-09-09T00:47:19.205Z,0
2017-09-09T00:48:19.537Z,0
2017-09-09T00:49:19.215Z,0
2017-09-09T00:50:19.711Z,0
2017-09-09T00:51:18.921Z,0
2017-09-09T00:52:19.208Z,0
2017-09-09T00:53:19.205Z,0
2017-09-09T00:54:19.513Z,0
2017-09-09T00:55:19.781Z,0
2017-09-09T00:56:19.203Z,0
2017-09-09T00:57:19.196Z,0
2017-09-09T00:58:19.202Z,0
2017-09-09T00:59:18.898Z,0
2017-09-09T01:00:20.888Z,0
2017-09-09T01:01:19.206Z,0
2017-09-09T01:02:18.890Z,0
2017-09-09T01:03:18.581Z,0
2017-09-09T01:04:19.524Z,0
2017-09-09T01:05:20.232Z,0
2017-09-09T01:06:18.894Z,0
2017-09-09T01:07:19.197Z,0
2017-09-09T01:08:19.507Z,0
2017-09-09T01:09:18.960Z,0
2017-09-09T01:10:20.398Z,0
2017-09-09T01:11:18.585Z,0
2017-09-09T01:12:18.884Z,0
2017-09-09T01:13:19.486Z,0
2017-09-09T01:14:19.503Z,0
2017-09-09T01:15:19.833Z,0
2017-09-09T01:16:19.182Z,0
2017-09-09T01:17:19.187Z,0
2017-09-09T01:18:19.500Z,0
2017-09-09T01:19:19.555Z,0
2017-09-09T01:20:19.963Z,0
2017-09-09T01:21:18.863Z,0
2017-09-09T01:22:19.164Z,0
2017-09-09T01:23:19.181Z,0
2017-09-09T01:24:18.546Z,0
2017-09-09T01:25:20.764Z,0
2017-09-09T01:26:18.851Z,0
2017-09-09T01:27:19.169Z,0
2017-09-09T01:28:19.160Z,0
2017-09-09T01:29:18.858Z,0
2017-09-09T01:30:20.713Z,0
2017-09-09T01:31:18.842Z,0
2017-09-09T01:32:19.467Z,0
2017-09-09T01:33:19.150Z,0
2017-09-09T01:34:19.145Z,0
2017-09-09T01:35:21.236Z,0
2017-09-09T01:36:18.839Z,0
2017-09-09T01:37:19.151Z,0
2017-09-09T01:38:19.137Z,0
2017-09-09T01:39:19.136Z,0
2017-09-09T01:40:20.755Z,0
2017-09-09T01:41:18.835Z,0
2017-09-09T01:42:19.136Z,0
2017-09-09T01:43:18.819Z,0
2017-09-09T01:44:19.438Z,0
2017-09-09T01:45:18.984Z,0
2017-09-09T01:46:18.863Z,0
2017-09-09T01:47:19.127Z,0
2017-09-09T01:48:18.816Z,0
2017-09-09T01:49:18.816Z,0
2017-09-09T01:50:19.728Z,0
2017-09-09T01:51:19.728Z,0
2017-09-09T01:52:19.421Z,0
2017-09-09T01:53:18.792Z,0
2017-09-09T01:54:18.512Z,0
2017-09-09T01:55:20.755Z,0
2017-09-09T01:56:19.480Z,0
2017-09-09T01:57:19.136Z,0
2017-09-09T01:58:19.452Z,0
2017-09-09T01:59:19.412Z,0
2017-09-09T02:00:20.670Z,0
2017-09-09T02:01:18.169Z,0
2017-09-09T02:02:19.408Z,0
2017-09-09T02:03:18.483Z,0
2017-09-09T02:04:18.783Z,0
2017-09-09T02:05:19.778Z,0
2017-09-09T02:06:18.798Z,0
2017-09-09T02:07:18.783Z,0
2017-09-09T02:08:19.095Z,0
2017-09-09T02:09:19.081Z,0
2017-09-09T02:10:20.371Z,0
2017-09-09T02:11:18.455Z,0
2017-09-09T02:12:19.077Z,0
2017-09-09T02:13:19.083Z,0
2017-09-09T02:14:18.777Z,0
2017-09-09T02:15:20.655Z,0
2017-09-09T02:16:19.090Z,0
2017-09-09T02:17:19.068Z,0
2017-09-09T02:18:18.491Z,0
2017-09-09T02:19:18.755Z,0
2017-09-09T02:20:20.637Z,0
2017-09-09T02:21:19.089Z,0
2017-09-09T02:22:18.753Z,0
2017-09-09T02:23:19.088Z,0
2017-09-09T02:24:19.060Z,0
2017-09-09T02:25:20.510Z,0
2017-09-09T02:26:18.755Z,0
2017-09-09T02:27:18.747Z,0
2017-09-09T02:28:19.365Z,0
2017-09-09T02:29:18.434Z,0
2017-09-09T02:30:20.114Z,0
2017-09-09T02:31:19.061Z,0
2017-09-09T02:32:19.041Z,0
2017-09-09T02:33:19.056Z,0
2017-09-09T02:34:19.061Z,0
2017-09-09T02:35:20.698Z,0
2017-09-09T02:36:19.356Z,0
2017-09-09T02:37:18.739Z,0
2017-09-09T02:38:18.432Z,0
2017-09-09T02:39:19.350Z,0
2017-09-09T02:40:19.623Z,0
2017-09-09T02:41:18.728Z,0
2017-09-09T02:42:19.048Z,0
2017-09-09T02:43:19.389Z,0
2017-09-09T02:44:19.073Z,0
2017-09-09T02:45:20.809Z,0
2017-09-09T02:46:19.040Z,0
2017-09-09T02:47:19.353Z,0
2017-09-09T02:48:19.036Z,0
2017-09-09T02:49:19.042Z,0
2017-09-09T02:50:20.426Z,0
2017-09-09T02:51:18.751Z,0
2017-09-09T02:52:19.039Z,0
2017-09-09T02:53:19.035Z,0
2017-09-09T02:54:19.038Z,0
2017-09-09T02:55:20.154Z,0
2017-09-09T02:56:19.045Z,0
2017-09-09T02:57:18.404Z,0
2017-09-09T02:58:18.707Z,0
2017-09-09T02:59:19.018Z,0
2017-09-09T03:00:19.871Z,0
2017-09-09T03:01:19.022Z,0
2017-09-09T03:02:19.028Z,0
2017-09-09T03:03:18.708Z,0
2017-09-09T03:04:19.010Z,0
2017-09-09T03:05:20.661Z,0
2017-09-09T03:06:19.331Z,0
2017-09-09T03:07:19.314Z,0
2017-09-09T03:08:18.402Z,0
2017-09-09T03:09:19.013Z,0
2017-09-09T03:10:20.068Z,0
2017-09-09T03:11:19.012Z,0
2017-09-09T03:12:18.699Z,0
2017-09-09T03:13:18.696Z,0
2017-09-09T03:14:18.997Z,0
2017-09-09T03:15:19.226Z,0
2017-09-09T03:16:18.686Z,0
2017-09-09T03:17:18.693Z,0
2017-09-09T03:18:18.692Z,0
2017-09-09T03:19:18.985Z,0
2017-09-09T03:20:19.624Z,0
2017-09-09T03:21:19.340Z,0
2017-09-09T03:22:19.316Z,0
2017-09-09T03:23:19.001Z,0
2017-09-09T03:24:18.997Z,0
2017-09-09T03:25:19.937Z,0
2017-09-09T03:26:19.297Z,0
2017-09-09T03:27:18.685Z,0
2017-09-09T03:28:18.362Z,0
2017-09-09T03:29:18.360Z,0
2017-09-09T03:30:19.769Z,0
2017-09-09T03:31:19.295Z,0
2017-09-09T03:32:18.668Z,0
2017-09-09T03:33:19.272Z,0
2017-09-09T03:34:18.360Z,0
2017-09-09T03:35:19.426Z,0
2017-09-09T03:36:18.970Z,0
2017-09-09T03:37:18.353Z,0
2017-09-09T03:38:18.963Z,0
2017-09-09T03:39:18.957Z,0
2017-09-09T03:40:19.852Z,0
2017-09-09T03:41:18.980Z,0
2017-09-09T03:42:18.958Z,0
2017-09-09T03:43:19.271Z,0
2017-09-09T03:44:18.656Z,0
2017-09-09T03:45:20.264Z,0
2017-09-09T03:46:18.666Z,0
2017-09-09T03:47:18.642Z,0
2017-09-09T03:48:18.640Z,0
2017-09-09T03:49:18.953Z,0
2017-09-09T03:50:20.695Z,0
2017-09-09T03:51:18.973Z,0
2017-09-09T03:52:19.261Z,0
2017-09-09T03:53:18.635Z,0
2017-09-09T03:54:18.961Z,0
2017-09-09T03:55:19.961Z,0
2017-09-09T03:56:18.950Z,0
2017-09-09T03:57:18.975Z,0
2017-09-09T03:58:18.941Z,0
2017-09-09T03:59:18.940Z,0
2017-09-09T04:00:20.196Z,0
2017-09-09T04:01:18.625Z,0
2017-09-09T04:02:19.242Z,0
2017-09-09T04:03:18.927Z,0
2017-09-09T04:04:18.637Z,0
2017-09-09T04:05:20.151Z,0
2017-09-09T04:06:18.621Z,0
2017-09-09T04:07:18.929Z,0
2017-09-09T04:08:18.940Z,0
2017-09-09T04:09:18.919Z,0
2017-09-09T04:10:20.006Z,0
2017-09-09T04:11:19.237Z,0
2017-09-09T04:12:18.619Z,0
2017-09-09T04:13:18.634Z,0
2017-09-09T04:14:18.324Z,0
2017-09-09T04:15:20.278Z,0
2017-09-09T04:16:18.609Z,0
2017-09-09T04:17:18.921Z,0
2017-09-09T04:18:19.268Z,0
2017-09-09T04:19:18.627Z,0
2017-09-09T04:20:19.860Z,0
2017-09-09T04:21:19.220Z,0
2017-09-09T04:22:18.931Z,0
2017-09-09T04:23:18.603Z,0
2017-09-09T04:24:18.593Z,0
2017-09-09T04:25:19.759Z,0
2017-09-09T04:26:18.291Z,0
2017-09-09T04:27:18.294Z,0
2017-09-09T04:28:18.613Z,0
2017-09-09T04:29:19.269Z,0
2017-09-09T04:30:19.929Z,0
2017-09-09T04:31:18.584Z,0
2017-09-09T04:32:18.900Z,0
2017-09-09T04:33:18.602Z,0
2017-09-09T04:34:18.585Z,0
2017-09-09T04:35:20.227Z,0
2017-09-09T04:36:18.902Z,0
2017-09-09T04:37:18.904Z,0
2017-09-09T04:38:18.282Z,0
2017-09-09T04:39:18.589Z,0
2017-09-09T04:40:19.717Z,0
2017-09-09T04:41:18.281Z,0
2017-09-09T04:42:18.882Z,0
2017-09-09T04:43:18.893Z,0
2017-09-09T04:44:18.578Z,0
2017-09-09T04:45:20.406Z,0
2017-09-09T04:46:18.881Z,0
2017-09-09T04:47:18.577Z,0
2017-09-09T04:48:18.889Z,0
2017-09-09T04:49:18.268Z,0
2017-09-09T04:50:20.706Z,0
2017-09-09T04:51:18.883Z,0
2017-09-09T04:52:19.186Z,0
2017-09-09T04:53:18.880Z,0
2017-09-09T04:54:18.883Z,0
2017-09-09T04:55:19.701Z,0
2017-09-09T04:56:18.558Z,0
2017-09-09T04:57:19.179Z,0
2017-09-09T04:58:18.554Z,0
2017-09-09T04:59:18.238Z,0
2017-09-09T05:00:19.836Z,0
2017-09-09T05:01:18.547Z,0
2017-09-09T05:02:18.553Z,0
2017-09-09T05:03:18.856Z,0
2017-09-09T05:04:19.164Z,0
2017-09-09T05:05:19.600Z,0
2017-09-09T05:06:18.858Z,0
2017-09-09T05:07:19.173Z,0
2017-09-09T05:08:18.853Z,0
2017-09-09T05:09:18.856Z,0
2017-09-09T05:10:19.626Z,0
2017-09-09T05:11:19.178Z,0
2017-09-09T05:12:18.843Z,0
2017-09-09T05:13:18.533Z,5
2017-09-09T05:14:19.644Z,5
2017-09-09T05:15:19.852Z,5
2017-09-09T05:16:18.892Z,5
2017-09-09T05:17:19.159Z,5
2017-09-09T05:18:19.548Z,5
2017-09-09T05:19:18.861Z,5
2017-09-09T05:20:20.338Z,5
2017-09-09T05:21:19.145Z,5
2017-09-09T05:22:18.526Z,5
2017-09-09T05:23:18.529Z,5
2017-09-09T05:24:18.528Z,5
2017-09-09T05:25:19.635Z,5
2017-09-09T05:26:18.840Z,5
2017-09-09T05:27:18.529Z,5
2017-09-09T05:28:18.837Z,5
2017-09-09T05:29:18.827Z,10
2017-09-09T05:30:20.077Z,5
2017-09-09T05:31:18.841Z,10
2017-09-09T05:32:19.140Z,10
2017-09-09T05:33:19.138Z,10
2017-09-09T05:34:18.522Z,10
2017-09-09T05:35:19.665Z,10
2017-09-09T05:36:17.915Z,10
2017-09-09T05:37:19.139Z,10
2017-09-09T05:38:18.213Z,10
2017-09-09T05:39:18.831Z,15
2017-09-09T05:40:20.206Z,15
2017-09-09T05:41:19.127Z,15
2017-09-09T05:42:18.507Z,15
2017-09-09T05:43:18.820Z,20
2017-09-09T05:44:19.630Z,20
2017-09-09T05:45:20.018Z,20
2017-09-09T05:46:18.517Z,20
2017-09-09T05:47:18.843Z,20
2017-09-09T05:48:18.524Z,15
2017-09-09T05:49:18.192Z,15
2017-09-09T05:50:20.697Z,15
2017-09-09T05:51:19.128Z,15
2017-09-09T05:52:18.817Z,20
2017-09-09T05:53:18.819Z,20
2017-09-09T05:54:18.822Z,20
2017-09-09T05:55:19.588Z,20
2017-09-09T05:56:19.130Z,15
2017-09-09T05:57:18.503Z,15
2017-09-09T05:58:18.532Z,15
2017-09-09T05:59:18.823Z,15
2017-09-09T06:00:20.611Z,15
2017-09-09T06:01:18.515Z,15
2017-09-09T06:02:18.509Z,20
2017-09-09T06:03:18.800Z,15
2017-09-09T06:04:18.806Z,15
2017-09-09T06:05:20.295Z,15
2017-09-09T06:06:18.504Z,15
2017-09-09T06:07:18.808Z,15
2017-09-09T06:08:18.801Z,15
2017-09-09T06:09:18.494Z,15
2017-09-09T06:10:22.055Z,10
2017-09-09T06:11:18.507Z,10
2017-09-09T06:12:19.107Z,10
2017-09-09T06:13:18.499Z,15
2017-09-09T06:14:18.801Z,10
2017-09-09T06:15:20.360Z,10
2017-09-09T06:16:18.806Z,10
2017-09-09T06:17:18.806Z,10
2017-09-09T06:18:19.099Z,10
2017-09-09T06:19:18.802Z,10
2017-09-09T06:20:19.708Z,10
2017-09-09T06:21:19.099Z,10
2017-09-09T06:22:18.832Z,10
2017-09-09T06:23:18.795Z,10
2017-09-09T06:24:18.790Z,10
2017-09-09T06:25:20.388Z,10
2017-09-09T06:26:18.792Z,10
2017-09-09T06:27:18.797Z,10
2017-09-09T06:28:18.495Z,10
2017-09-09T06:29:18.795Z,15
2017-09-09T06:30:19.446Z,15
2017-09-09T06:31:18.797Z,10
2017-09-09T06:32:18.790Z,10
2017-09-09T06:33:18.173Z,10
2017-09-09T06:34:18.502Z,10
2017-09-09T06:35:19.357Z,10
2017-09-09T06:36:18.474Z,10
2017-09-09T06:37:18.477Z,10
2017-09-09T06:38:18.498Z,10
2017-09-09T06:39:19.097Z,10
2017-09-09T06:40:20.100Z,5
2017-09-09T06:41:18.789Z,5
2017-09-09T06:42:18.470Z,5
2017-09-09T06:43:18.781Z,10
2017-09-09T06:44:18.468Z,10
2017-09-09T06:45:20.317Z,10
2017-09-09T06:46:18.804Z,10
2017-09-09T06:47:18.805Z,10
2017-09-09T06:48:18.479Z,10
2017-09-09T06:49:19.089Z,15
2017-09-09T06:50:20.322Z,15
2017-09-09T06:51:19.085Z,15
2017-09-09T06:52:18.163Z,15
2017-09-09T06:53:18.771Z,15
2017-09-09T06:54:18.772Z,15
2017-09-09T06:55:20.386Z,15
2017-09-09T06:56:17.846Z,15
2017-09-09T06:57:18.475Z,15
2017-09-09T06:58:18.478Z,15
2017-09-09T06:59:18.768Z,15
2017-09-09T07:00:19.812Z,10
2017-09-09T07:01:18.481Z,10
2017-09-09T07:02:18.202Z,15
2017-09-09T07:03:18.808Z,15
2017-09-09T07:04:18.186Z,15
2017-09-09T07:05:20.271Z,15
2017-09-09T07:06:18.516Z,15
2017-09-09T07:07:18.511Z,15
2017-09-09T07:08:18.462Z,15
2017-09-09T07:09:19.086Z,15
2017-09-09T07:10:19.758Z,15
2017-09-09T07:11:18.785Z,20
2017-09-09T07:12:18.162Z,20
2017-09-09T07:13:18.775Z,20
2017-09-09T07:14:18.152Z,20
2017-09-09T07:15:19.168Z,20
2017-09-09T07:16:18.773Z,20
2017-09-09T07:17:19.078Z,20
2017-09-09T07:18:18.163Z,20
2017-09-09T07:19:18.464Z,20
2017-09-09T07:20:19.503Z,20
2017-09-09T07:21:18.476Z,25
2017-09-09T07:22:19.089Z,25
2017-09-09T07:23:18.758Z,30
2017-09-09T07:24:18.773Z,30
2017-09-09T07:25:20.037Z,30
2017-09-09T07:26:18.762Z,30
2017-09-09T07:27:18.470Z,30
2017-09-09T07:28:18.460Z,30
2017-09-09T07:29:18.759Z,25
2017-09-09T07:30:20.510Z,25
2017-09-09T07:31:18.758Z,25
2017-09-09T07:32:18.763Z,25
2017-09-09T07:33:18.764Z,25
2017-09-09T07:34:18.462Z,30
2017-09-09T07:35:19.358Z,30
2017-09-09T07:36:18.796Z,30
2017-09-09T07:37:18.769Z,30
2017-09-09T07:38:18.143Z,30
2017-09-09T07:39:18.758Z,35
2017-09-09T07:40:19.844Z,35
2017-09-09T07:41:18.449Z,40
2017-09-09T07:42:19.066Z,40
2017-09-09T07:43:18.466Z,40
2017-09-09T07:44:18.762Z,40
2017-09-09T07:45:18.928Z,40
2017-09-09T07:46:19.064Z,40
2017-09-09T07:47:18.441Z,40
2017-09-09T07:48:18.467Z,40
2017-09-09T07:49:18.749Z,40
2017-09-09T07:50:19.500Z,40
2017-09-09T07:51:18.446Z,35
2017-09-09T07:52:19.060Z,30
2017-09-09T07:53:19.083Z,30
2017-09-09T07:54:18.127Z,30
2017-09-09T07:55:20.619Z,25
2017-09-09T07:56:18.749Z,25
2017-09-09T07:57:18.762Z,25
2017-09-09T07:58:18.445Z,25
2017-09-09T07:59:19.066Z,25
2017-09-09T08:00:20.063Z,25
2017-09-09T08:01:18.935Z,25
2017-09-09T08:02:18.963Z,25
2017-09-09T08:03:18.234Z,25
2017-09-09T08:04:18.769Z,25
2017-09-09T08:05:20.366Z,25
2017-09-09T08:06:18.759Z,25
2017-09-09T08:07:18.124Z,25
2017-09-09T08:08:19.084Z,25
2017-09-09T08:09:18.785Z,20
2017-09-09T08:10:19.748Z,20
2017-09-09T08:11:18.744Z,20
2017-09-09T08:12:19.057Z,25
2017-09-09T08:13:18.744Z,25
2017-09-09T08:14:18.436Z,25
2017-09-09T08:15:19.941Z,20
2017-09-09T08:16:18.433Z,20
2017-09-09T08:17:19.050Z,20
2017-09-09T08:18:18.452Z,20
2017-09-09T08:19:18.741Z,20
2017-09-09T08:20:19.291Z,25
2017-09-09T08:21:19.059Z,25
2017-09-09T08:22:18.749Z,25
2017-09-09T08:23:18.768Z,30
2017-09-09T08:24:18.747Z,30
2017-09-09T08:25:19.629Z,25
2017-09-09T08:26:18.433Z,25
2017-09-09T08:27:18.740Z,25
2017-09-09T08:28:18.743Z,25
2017-09-09T08:29:18.431Z,25
2017-09-09T08:30:19.733Z,25
2017-09-09T08:31:18.441Z,25
2017-09-09T08:32:18.740Z,25
2017-09-09T08:33:19.060Z,25
2017-09-09T08:34:18.748Z,25
2017-09-09T08:35:20.449Z,30
2017-09-09T08:36:18.138Z,30
2017-09-09T08:37:19.054Z,30
2017-09-09T08:38:18.423Z,30
2017-09-09T08:39:18.734Z,30
2017-09-09T08:40:18.757Z,30
2017-09-09T08:41:18.738Z,30
2017-09-09T08:42:18.431Z,35
2017-09-09T08:43:19.057Z,35
2017-09-09T08:44:18.741Z,35
2017-09-09T08:45:19.407Z,35
2017-09-09T08:46:18.742Z,40
2017-09-09T08:47:18.737Z,40
2017-09-09T08:48:18.437Z,40
2017-09-09T08:49:19.068Z,40
2017-09-09T08:50:19.363Z,45
2017-09-09T08:51:18.118Z,45
2017-09-09T08:52:18.429Z,45
2017-09-09T08:53:19.066Z,40
2017-09-09T08:54:18.731Z,40
2017-09-09T08:55:19.700Z,40
2017-09-09T08:56:18.429Z,40
2017-09-09T08:57:18.422Z,40
2017-09-09T08:58:18.727Z,40
2017-09-09T08:59:19.044Z,40
2017-09-09T09:00:20.212Z,40
2017-09-09T09:01:18.421Z,35
2017-09-09T09:02:19.046Z,40
2017-09-09T09:03:18.734Z,40
2017-09-09T09:04:18.741Z,40
2017-09-09T09:05:20.217Z,45
2017-09-09T09:06:18.777Z,45
2017-09-09T09:07:18.106Z,45
2017-09-09T09:08:18.737Z,50
2017-09-09T09:09:18.735Z,50
2017-09-09T09:10:20.120Z,50
2017-09-09T09:11:18.425Z,50
2017-09-09T09:12:18.108Z,45
2017-09-09T09:13:18.739Z,45
2017-09-09T09:14:18.425Z,45
2017-09-09T09:15:20.094Z,50
2017-09-09T09:16:18.422Z,50
2017-09-09T09:17:19.053Z,55
2017-09-09T09:18:18.741Z,55
2017-09-09T09:19:17.806Z,55
2017-09-09T09:20:19.732Z,55
2017-09-09T09:21:18.421Z,55
2017-09-09T09:22:18.424Z,55
2017-09-09T09:23:18.425Z,55
2017-09-09T09:24:18.117Z,55
2017-09-09T09:25:20.511Z,55
2017-09-09T09:26:18.420Z,55
2017-09-09T09:27:18.752Z,55
2017-09-09T09:28:18.426Z,60
2017-09-09T09:29:19.040Z,65
2017-09-09T09:30:20.346Z,65
2017-09-09T09:31:18.419Z,70
2017-09-09T09:32:18.119Z,70
2017-09-09T09:33:18.750Z,75
2017-09-09T09:34:18.734Z,75
2017-09-09T09:35:19.178Z,75
2017-09-09T09:36:18.724Z,75
2017-09-09T09:37:19.062Z,75
2017-09-09T09:38:19.037Z,75
2017-09-09T09:39:18.735Z,70
2017-09-09T09:40:19.841Z,70
2017-09-09T09:41:18.734Z,75
2017-09-09T09:42:19.048Z,80
2017-09-09T09:43:18.731Z,85
2017-09-09T09:44:19.036Z,90
2017-09-09T09:45:18.927Z,90
2017-09-09T09:46:18.423Z,95
2017-09-09T09:47:18.121Z,95
2017-09-09T09:48:18.742Z,100
2017-09-09T09:49:18.437Z,105
2017-09-09T09:50:19.953Z,115
2017-09-09T09:51:18.752Z,110
2017-09-09T09:52:18.436Z,115
2017-09-09T09:53:18.731Z,120
2017-09-09T09:54:18.728Z,125
2017-09-09T09:55:20.049Z,135
2017-09-09T09:56:18.426Z,145
2017-09-09T09:57:18.747Z,155
2017-09-09T09:58:18.123Z,165
2017-09-09T09:59:19.041Z,170
2017-09-09T10:00:20.128Z,170
2017-09-09T10:01:18.736Z,170
2017-09-09T10:02:18.759Z,165
2017-09-09T10:03:18.459Z,155
2017-09-09T10:04:18.430Z,145
2017-09-09T10:05:20.384Z,140
2017-09-09T10:06:18.765Z,130
2017-09-09T10:07:18.125Z,125
2017-09-09T10:08:18.450Z,120
2017-09-09T10:09:18.753Z,120
2017-09-09T10:10:19.289Z,110
2017-09-09T10:11:18.766Z,110
2017-09-09T10:12:18.135Z,110
2017-09-09T10:13:18.756Z,105
2017-09-09T10:14:18.766Z,105
2017-09-09T10:15:18.946Z,105
2017-09-09T10:16:18.773Z,110
2017-09-09T10:17:18.453Z,110
2017-09-09T10:18:18.768Z,110
2017-09-09T10:19:18.759Z,115
2017-09-09T10:20:18.890Z,115
2017-09-09T10:21:18.463Z,120
2017-09-09T10:22:18.768Z,120
2017-09-09T10:23:18.152Z,120
2017-09-09T10:24:19.084Z,125
2017-09-09T10:25:20.092Z,120
2017-09-09T10:26:18.798Z,120
2017-09-09T10:27:18.776Z,115
2017-09-09T10:28:18.771Z,110
2017-09-09T10:29:18.809Z,110
2017-09-09T10:30:19.480Z,110
2017-09-09T10:31:18.778Z,115
2017-09-09T10:32:18.842Z,120
2017-09-09T10:33:18.774Z,125
2017-09-09T10:34:19.090Z,130
2017-09-09T10:35:19.616Z,135
2017-09-09T10:36:18.789Z,135
2017-09-09T10:37:18.778Z,135
2017-09-09T10:38:18.473Z,140
2017-09-09T10:39:18.782Z,150
2017-09-09T10:40:19.695Z,155
2017-09-09T10:41:18.786Z,160
2017-09-09T10:42:18.775Z,170
2017-09-09T10:43:19.111Z,180
2017-09-09T10:44:19.117Z,185
2017-09-09T10:45:20.478Z,185
2017-09-09T10:46:18.486Z,180
2017-09-09T10:47:18.498Z,180
2017-09-09T10:48:19.122Z,185
2017-09-09T10:49:18.791Z,185
2017-09-09T10:50:20.336Z,185
2017-09-09T10:51:18.477Z,195
2017-09-09T10:52:18.799Z,200
2017-09-09T10:53:18.499Z,210
2017-09-09T10:54:18.840Z,225
2017-09-09T10:55:20.254Z,235
2017-09-09T10:56:18.180Z,245
2017-09-09T10:57:18.182Z,265
2017-09-09T10:58:18.265Z,265
2017-09-09T10:59:18.799Z,270
2017-09-09T11:00:20.041Z,270
2017-09-09T11:01:18.815Z,280
2017-09-09T11:02:18.799Z,285
2017-09-09T11:03:18.498Z,285
2017-09-09T11:04:18.803Z,280
2017-09-09T11:05:20.240Z,280
2017-09-09T11:06:19.139Z,290
2017-09-09T11:07:18.807Z,305
2017-09-09T11:08:18.519Z,310
2017-09-09T11:09:18.501Z,315
2017-09-09T11:10:19.139Z,325
2017-09-09T11:11:18.235Z,330
2017-09-09T11:12:18.523Z,330
2017-09-09T11:13:18.831Z,335
2017-09-09T11:14:19.136Z,330
2017-09-09T11:15:19.807Z,330
2017-09-09T11:16:18.209Z,325
2017-09-09T11:17:18.526Z,325
2017-09-09T11:18:19.156Z,320
2017-09-09T11:19:18.829Z,315
2017-09-09T11:20:19.961Z,320
2017-09-09T11:21:18.838Z,325
2017-09-09T11:22:19.156Z,325
2017-09-09T11:23:18.235Z,320
2017-09-09T11:24:18.905Z,320
2017-09-09T11:25:19.731Z,315
2017-09-09T11:26:18.539Z,315
2017-09-09T11:27:18.543Z,315
2017-09-09T11:28:18.862Z,315
2017-09-09T11:29:18.237Z,320
2017-09-09T11:30:20.215Z,320
2017-09-09T11:31:18.568Z,325
2017-09-09T11:32:18.570Z,325
2017-09-09T11:33:18.873Z,330
2017-09-09T11:34:18.318Z,340
2017-09-09T11:35:20.313Z,335
2017-09-09T11:36:18.574Z,335
2017-09-09T11:37:18.574Z,330
2017-09-09T11:38:18.877Z,330
2017-09-09T11:39:18.884Z,325
2017-09-09T11:40:19.929Z,330
2017-09-09T11:41:18.278Z,340
2017-09-09T11:42:18.897Z,335
2017-09-09T11:43:18.906Z,340
2017-09-09T11:44:18.898Z,340
2017-09-09T11:45:19.378Z,335
2017-09-09T11:46:19.416Z,340
2017-09-09T11:47:18.602Z,335
2017-09-09T11:48:18.912Z,340
2017-09-09T11:49:19.222Z,340
2017-09-09T11:50:20.450Z,345
2017-09-09T11:51:19.233Z,335
2017-09-09T11:52:18.934Z,340
2017-09-09T11:53:18.307Z,340
2017-09-09T11:54:18.933Z,330
2017-09-09T11:55:20.461Z,325
2017-09-09T11:56:19.283Z,320
2017-09-09T11:57:18.645Z,330
2017-09-09T11:58:18.640Z,345
2017-09-09T11:59:18.675Z,355
2017-09-09T12:00:19.734Z,350
2017-09-09T12:01:18.963Z,335
2017-09-09T12:02:18.687Z,315
2017-09-09T12:03:19.006Z,285
2017-09-09T12:04:19.169Z,255
2017-09-09T12:05:20.301Z,235
2017-09-09T12:06:18.969Z,225
2017-09-09T12:07:18.676Z,200
2017-09-09T12:08:18.985Z,175
2017-09-09T12:09:18.987Z,160
2017-09-09T12:10:20.955Z,160
2017-09-09T12:11:19.310Z,160
2017-09-09T12:12:18.676Z,180
2017-09-09T12:13:18.373Z,215
2017-09-09T12:14:18.684Z,275
2017-09-09T12:15:19.520Z,325
2017-09-09T12:16:21.182Z,340
2017-09-09T12:17:19.033Z,340
2017-09-09T12:18:18.700Z,325
2017-09-09T12:19:19.013Z,330
2017-09-09T12:20:19.637Z,300
2017-09-09T12:21:19.140Z,265
2017-09-09T12:22:18.427Z,240
2017-09-09T12:23:18.416Z,220
2017-09-09T12:24:18.724Z,210
2017-09-09T12:25:19.289Z,205
2017-09-09T12:26:18.752Z,200
2017-09-09T12:27:19.042Z,185
2017-09-09T12:28:18.422Z,180
2017-09-09T12:29:18.475Z,185
2017-09-09T12:30:19.307Z,195
2017-09-09T12:31:18.751Z,200
2017-09-09T12:32:18.450Z,180
2017-09-09T12:33:18.745Z,160
2017-09-09T12:34:18.745Z,165
2017-09-09T12:35:19.747Z,170
2017-09-09T12:36:19.064Z,175
2017-09-09T12:37:18.753Z,170
2017-09-09T12:38:19.058Z,165
2017-09-09T12:39:19.063Z,155
2017-09-09T12:40:20.114Z,145
2017-09-09T12:41:19.063Z,125
2017-09-09T12:42:18.452Z,100
2017-09-09T12:43:19.067Z,90
2017-09-09T12:44:18.761Z,75
2017-09-09T12:45:19.981Z,65
2017-09-09T12:46:19.272Z,55
2017-09-09T12:47:18.771Z,55
2017-09-09T12:48:19.089Z,55
2017-09-09T12:49:19.091Z,65
2017-09-09T12:50:21.529Z,65
2017-09-09T12:51:19.397Z,65
2017-09-09T12:52:18.777Z,55
2017-09-09T12:53:19.092Z,50
2017-09-09T12:54:18.783Z,50
2017-09-09T12:55:19.385Z,55
2017-09-09T12:56:18.869Z,55
2017-09-09T12:57:19.408Z,55
2017-09-09T12:58:19.403Z,50
2017-09-09T12:59:19.095Z,50
2017-09-09T13:00:20.175Z,60
2017-09-09T13:01:19.097Z,65
2017-09-09T13:02:19.154Z,75
2017-09-09T13:03:18.793Z,85
2017-09-09T13:04:18.490Z,100
2017-09-09T13:05:20.014Z,105
2017-09-09T13:06:18.799Z,115
2017-09-09T13:07:19.428Z,135
2017-09-09T13:08:19.509Z,150
2017-09-09T13:09:18.805Z,160
2017-09-09T13:10:19.599Z,170
2017-09-09T13:11:18.519Z,185
2017-09-09T13:12:18.818Z,200
2017-09-09T13:13:18.828Z,215
2017-09-09T13:14:19.142Z,225
2017-09-09T13:15:19.971Z,230
2017-09-09T13:16:19.944Z,245
2017-09-09T13:17:18.532Z,260
2017-09-09T13:18:19.456Z,280
2017-09-09T13:19:18.814Z,305
2017-09-09T13:20:20.656Z,305
2017-09-09T13:21:18.867Z,305
2017-09-09T13:22:18.520Z,295
2017-09-09T13:23:19.131Z,285
2017-09-09T13:24:18.827Z,260
2017-09-09T13:25:20.075Z,235
2017-09-09T13:26:18.827Z,225
2017-09-09T13:27:19.462Z,210
2017-09-09T13:28:18.849Z,190
2017-09-09T13:29:19.148Z,175
2017-09-09T13:30:20.086Z,170
2017-09-09T13:31:18.857Z,165
2017-09-09T13:32:18.541Z,150
2017-09-09T13:33:19.188Z,135
2017-09-09T13:34:18.855Z,125
2017-09-09T13:35:20.175Z,110
2017-09-09T13:36:18.861Z,105
2017-09-09T13:37:18.858Z,100
2017-09-09T13:38:18.750Z,90
2017-09-09T13:39:18.686Z,85
2017-09-09T13:40:19.999Z,75
2017-09-09T13:41:18.912Z,75
2017-09-09T13:42:18.867Z,60
2017-09-09T13:43:19.504Z,55
2017-09-09T13:44:19.218Z,50
2017-09-09T13:45:20.201Z,40
2017-09-09T13:46:19.991Z,40
2017-09-09T13:47:19.067Z,40
2017-09-09T13:48:18.579Z,40
2017-09-09T13:49:18.887Z,45
2017-09-09T13:50:19.194Z,45
2017-09-09T13:51:18.896Z,50
2017-09-09T13:52:19.207Z,55
2017-09-09T13:53:18.903Z,60
2017-09-09T13:54:18.602Z,60
2017-09-09T13:55:20.625Z,55
2017-09-09T13:56:18.610Z,55
2017-09-09T13:57:19.228Z,50
2017-09-09T13:58:18.929Z,45
2017-09-09T13:59:18.915Z,45
2017-09-09T14:00:20.510Z,45
2017-09-09T14:01:18.911Z,50
2017-09-09T14:02:18.650Z,55
2017-09-09T14:03:19.232Z,65
2017-09-09T14:04:19.243Z,80
2017-09-09T14:05:20.113Z,95
2017-09-09T14:06:18.938Z,110
2017-09-09T14:07:18.640Z,120
2017-09-09T14:08:19.249Z,130
2017-09-09T14:09:19.243Z,135
2017-09-09T14:10:19.947Z,135
2017-09-09T14:11:19.029Z,135
2017-09-09T14:12:19.462Z,125
2017-09-09T14:13:18.978Z,115
2017-09-09T14:14:19.700Z,110
2017-09-09T14:15:20.906Z,105
2017-09-09T14:16:20.113Z,95
2017-09-09T14:17:19.728Z,85
2017-09-09T14:18:19.716Z,80
2017-09-09T14:19:19.375Z,70